createdAt,value
2023-05-07T00:01:39.597Z,46.31
2023-05-07T00:04:07.213Z,45.79
2023-05-07T00:06:34.320Z,46.55
2023-05-07T00:09:01.982Z,46.61
2023-05-07T00:11:29.221Z,47.02
2023-05-07T00:13:56.027Z,46.77
2023-05-07T00:16:23.014Z,47.23
2023-05-07T00:18:49.805Z,47.43
2023-05-07T00:21:16.702Z,47.61
2023-05-07T00:23:49.103Z,47.58
2023-05-07T00:26:15.858Z,48.23
2023-05-07T00:28:47.610Z,47.86
2023-05-07T00:31:14.305Z,48.06
2023-05-07T00:33:41.074Z,48.37
2023-05-07T00:36:10.793Z,48.46
2023-05-07T00:38:37.542Z,48.48
2023-05-07T00:41:04.457Z,49.01
2023-05-07T00:43:31.181Z,48.75
2023-05-07T00:45:57.945Z,49.36
2023-05-07T00:48:26.003Z,49.59
2023-05-07T00:50:53.238Z,49.95
2023-05-07T00:53:20.428Z,49.71
2023-05-07T00:55:47.311Z,50.53
2023-05-07T00:58:14.059Z,50.53
2023-05-07T01:00:41.567Z,50.72
2023-05-07T01:03:09.172Z,50.56
2023-05-07T01:05:36.491Z,51.21
2023-05-07T01:08:05.256Z,51.14
2023-05-07T01:10:32.306Z,51.57
2023-05-07T01:13:00.570Z,51.14
2023-05-07T01:15:27.704Z,51.41
2023-05-07T01:17:54.510Z,51.20
2023-05-07T01:20:28.951Z,51.37
2023-05-07T01:22:58.220Z,51.75
2023-05-07T01:25:25.631Z,51.07
2023-05-07T01:27:55.701Z,51.82
2023-05-07T01:30:27.448Z,51.19
2023-05-07T01:33:07.945Z,51.25
2023-05-07T01:35:44.858Z,51.30
2023-05-07T01:38:12.418Z,51.43
2023-05-07T01:40:39.661Z,51.25
2023-05-07T01:43:07.335Z,51.57
2023-05-07T01:45:36.382Z,51.54
2023-05-07T01:48:04.312Z,51.23
2023-05-07T01:50:31.994Z,51.41
2023-05-07T01:52:58.745Z,51.30
2023-05-07T01:55:25.473Z,51.58
2023-05-07T01:57:52.124Z,51.84
2023-05-07T02:00:20.022Z,52.17
2023-05-07T02:02:46.901Z,52.46
2023-05-07T02:05:27.409Z,52.73
2023-05-07T02:08:02.468Z,52.46
2023-05-07T02:10:30.603Z,53.01
2023-05-07T02:12:57.560Z,53.01
2023-05-07T02:15:24.685Z,52.78
2023-05-07T02:18:03.974Z,53.31
2023-05-07T02:20:30.887Z,53.47
2023-05-07T02:22:57.672Z,53.68
2023-05-07T02:25:26.245Z,53.40
2023-05-07T02:27:52.933Z,53.55
2023-05-07T02:30:22.913Z,54.09
2023-05-07T02:32:53.118Z,54.11
2023-05-07T02:35:19.906Z,54.22
2023-05-07T02:37:46.661Z,54.03
2023-05-07T02:40:14.268Z,53.94
2023-05-07T02:42:41.104Z,54.67
2023-05-07T02:45:08.492Z,54.38
2023-05-07T02:47:35.791Z,54.44
2023-05-07T02:50:04.670Z,54.45
2023-05-07T02:52:31.597Z,54.05
2023-05-07T02:54:59.309Z,54.61
2023-05-07T02:57:26.095Z,54.95
2023-05-07T02:59:53.098Z,54.96
2023-05-07T03:02:21.426Z,55.21
2023-05-07T03:04:48.168Z,54.84
2023-05-07T03:07:20.137Z,55.45
2023-05-07T03:09:46.792Z,55.58
2023-05-07T03:12:13.653Z,55.63
2023-05-07T03:14:40.295Z,56.01
2023-05-07T03:17:07.008Z,55.92
2023-05-07T03:19:33.785Z,55.63
2023-05-07T03:22:00.535Z,55.81
2023-05-07T03:24:27.455Z,55.84
2023-05-07T03:26:54.183Z,56.41
2023-05-07T03:29:20.959Z,56.51
2023-05-07T03:31:47.882Z,56.59
2023-05-07T03:34:14.656Z,56.58
2023-05-07T03:36:41.468Z,56.45
2023-05-07T03:39:11.592Z,56.90
2023-05-07T03:41:40.816Z,56.62
2023-05-07T03:44:07.621Z,56.62
2023-05-07T03:46:35.506Z,57.30
2023-05-07T03:49:03.022Z,57.50
2023-05-07T03:51:31.167Z,57.08
2023-05-07T03:53:58.215Z,57.14
2023-05-07T03:56:27.684Z,56.88
2023-05-07T03:58:56.071Z,57.23
2023-05-07T04:01:22.837Z,57.41
2023-05-07T04:03:49.650Z,57.03
2023-05-07T04:06:17.706Z,57.63
2023-05-07T04:08:46.866Z,57.27
2023-05-07T04:11:14.154Z,57.65
2023-05-07T04:13:40.872Z,57.42
2023-05-07T04:16:09.457Z,57.58
2023-05-07T04:18:39.709Z,57.46
2023-05-07T04:21:06.990Z,58.27
2023-05-07T04:23:36.588Z,57.72
2023-05-07T04:26:08.110Z,57.93
2023-05-07T04:28:41.730Z,57.27
2023-05-07T04:31:09.035Z,57.54
2023-05-07T04:33:37.483Z,57.71
2023-05-07T04:36:05.945Z,57.95
2023-05-07T04:38:38.297Z,57.42
2023-05-07T04:41:06.388Z,57.48
2023-05-07T04:43:36.438Z,57.09
2023-05-07T04:46:03.238Z,57.10
2023-05-07T04:48:31.070Z,56.89
2023-05-07T04:50:59.171Z,57.26
2023-05-07T04:53:26.227Z,57.16
2023-05-07T04:55:58.320Z,56.91
2023-05-07T04:58:28.689Z,56.62
2023-05-07T05:00:55.797Z,56.41
2023-05-07T05:03:22.596Z,56.68
2023-05-07T05:05:53.740Z,56.63
2023-05-07T05:08:22.200Z,56.64
2023-05-07T05:10:51.108Z,56.46
2023-05-07T05:13:18.733Z,56.38
2023-05-07T05:15:46.786Z,56.61
2023-05-07T05:18:13.661Z,56.02
2023-05-07T05:20:40.778Z,55.71
2023-05-07T05:23:08.932Z,55.62
2023-05-07T05:25:35.992Z,55.67
2023-05-07T05:28:02.959Z,55.75
2023-05-07T05:30:30.821Z,55.15
2023-05-07T05:32:57.563Z,55.50
2023-05-07T05:35:24.323Z,55.04
2023-05-07T05:37:51.275Z,55.34
2023-05-07T05:40:19.300Z,54.90
2023-05-07T05:42:47.495Z,54.97
2023-05-07T05:45:14.849Z,54.67
2023-05-07T05:47:42.450Z,54.66
2023-05-07T05:50:10.426Z,54.42
2023-05-07T05:52:37.781Z,53.71
2023-05-07T05:55:04.983Z,53.58
2023-05-07T05:57:31.849Z,52.96
2023-05-07T05:59:58.916Z,52.78
2023-05-07T06:02:25.772Z,52.43
2023-05-07T06:04:52.795Z,52.23
2023-05-07T06:07:22.141Z,51.96
2023-05-07T06:09:49.554Z,51.71
2023-05-07T06:12:16.617Z,51.24
2023-05-07T06:14:46.452Z,50.83
2023-05-07T06:17:13.550Z,50.56
2023-05-07T06:19:40.413Z,50.58
2023-05-07T06:22:07.482Z,50.53
2023-05-07T06:24:35.149Z,50.15
2023-05-07T06:27:01.872Z,49.63
2023-05-07T06:29:32.502Z,49.30
2023-05-07T06:32:14.108Z,49.10
2023-05-07T06:34:43.236Z,49.06
2023-05-07T06:37:09.976Z,49.08
2023-05-07T06:39:51.100Z,49.46
2023-05-07T06:42:17.917Z,49.96
2023-05-07T06:44:47.712Z,49.59
2023-05-07T06:47:16.837Z,49.36
2023-05-07T06:49:46.295Z,48.67
2023-05-07T06:52:16.494Z,48.50
2023-05-07T06:54:43.495Z,48.11
2023-05-07T06:57:14.118Z,48.40
2023-05-07T06:59:41.314Z,47.20
2023-05-07T07:02:09.532Z,46.91
2023-05-07T07:04:36.873Z,46.28
2023-05-07T07:07:07.112Z,46.65
2023-05-07T07:09:33.901Z,46.40
2023-05-07T07:12:01.604Z,45.74
2023-05-07T07:14:28.913Z,44.81
2023-05-07T07:16:55.634Z,44.82
2023-05-07T07:19:24.046Z,44.53
2023-05-07T07:21:53.603Z,44.00
2023-05-07T07:24:22.286Z,43.78
2023-05-07T07:26:53.218Z,43.69
2023-05-07T07:29:21.442Z,43.16
2023-05-07T07:31:50.557Z,43.12
2023-05-07T07:34:20.039Z,42.54
2023-05-07T07:36:47.207Z,42.02
2023-05-07T07:39:17.932Z,42.03
2023-05-07T07:41:46.319Z,41.65
2023-05-07T07:44:16.004Z,42.35
2023-05-07T07:46:46.776Z,43.08
2023-05-07T07:49:13.969Z,43.32
2023-05-07T07:51:42.115Z,43.82
2023-05-07T07:54:10.761Z,44.37
2023-05-07T07:56:39.176Z,44.50
2023-05-07T07:59:07.144Z,43.86
2023-05-07T08:01:35.413Z,43.87
2023-05-07T08:04:04.452Z,43.21
2023-05-07T08:06:33.998Z,43.64
2023-05-07T08:09:03.277Z,43.92
2023-05-07T08:11:30.072Z,44.54
2023-05-07T08:13:59.926Z,44.29
2023-05-07T08:16:27.548Z,44.51
2023-05-07T08:18:54.282Z,45.25
2023-05-07T08:21:21.246Z,45.18
2023-05-07T08:23:48.250Z,44.46
2023-05-07T08:26:14.963Z,44.82
2023-05-07T08:28:42.610Z,43.97
2023-05-07T08:31:09.437Z,43.28
2023-05-07T08:33:39.630Z,42.98
2023-05-07T08:36:06.672Z,43.26
2023-05-07T08:38:33.776Z,43.54
2023-05-07T08:41:00.511Z,42.76
2023-05-07T08:43:32.688Z,42.23
2023-05-07T08:46:03.153Z,41.20
2023-05-07T08:48:33.775Z,41.05
2023-05-07T08:51:07.390Z,40.56
2023-05-07T08:53:35.103Z,40.13
2023-05-07T08:56:02.206Z,39.28
2023-05-07T08:58:30.071Z,35.55
2023-05-07T09:00:57.278Z,30.89
2023-05-07T09:03:25.051Z,29.01
2023-05-07T09:05:54.149Z,25.98
2023-05-07T09:08:26.401Z,24.60
2023-05-07T09:10:55.620Z,22.42
2023-05-07T09:13:24.841Z,21.44
2023-05-07T09:15:51.840Z,21.38
2023-05-07T09:18:19.856Z,20.91
2023-05-07T09:20:48.675Z,20.63
2023-05-07T09:23:18.398Z,19.74
2023-05-07T09:25:45.336Z,17.64
2023-05-07T09:28:27.111Z,15.13
2023-05-07T09:30:53.864Z,14.20
2023-05-07T09:33:21.967Z,14.41
2023-05-07T09:35:52.907Z,16.85
2023-05-07T09:38:22.398Z,18.60
2023-05-07T09:41:12.649Z,20.86
2023-05-07T09:43:56.992Z,19.78
2023-05-07T09:46:31.629Z,16.92
2023-05-07T09:49:03.231Z,14.95
2023-05-07T09:51:50.000Z,14.48
2023-05-07T09:54:18.617Z,13.54
2023-05-07T09:56:55.748Z,13.23
2023-05-07T09:59:29.927Z,12.22
2023-05-07T10:02:02.077Z,10.14
2023-05-07T10:04:31.652Z,9.11
2023-05-07T10:06:59.739Z,8.67
2023-05-07T10:09:27.791Z,8.85
2023-05-07T10:11:55.369Z,8.06
2023-05-07T10:14:22.750Z,7.46
2023-05-07T10:16:50.232Z,7.45
2023-05-07T10:19:18.756Z,7.14
2023-05-07T10:22:05.749Z,7.04
2023-05-07T10:24:38.495Z,6.06
2023-05-07T10:27:13.625Z,6.08
2023-05-07T10:29:54.339Z,5.70
2023-05-07T10:32:52.029Z,5.34
2023-05-07T10:35:32.915Z,5.29
2023-05-07T10:38:02.055Z,4.44
2023-05-07T10:40:32.695Z,5.20
2023-05-07T10:43:08.571Z,5.13
2023-05-07T10:45:42.419Z,5.70
2023-05-07T10:48:28.878Z,5.30
2023-05-07T10:51:22.778Z,5.57
2023-05-07T10:54:12.054Z,5.20
2023-05-07T10:56:44.489Z,5.30
2023-05-07T10:59:21.982Z,4.71
2023-05-07T11:02:05.205Z,5.07
2023-05-07T11:05:24.740Z,5.99
2023-05-07T11:08:10.476Z,6.28
2023-05-07T11:11:03.534Z,6.06
2023-05-07T11:13:49.304Z,6.72
2023-05-07T11:16:39.549Z,7.31
2023-05-07T11:19:52.386Z,8.40
2023-05-07T11:22:43.521Z,8.38
2023-05-07T11:25:24.738Z,8.60
2023-05-07T11:28:04.843Z,8.66
2023-05-07T11:30:33.016Z,7.94
2023-05-07T11:33:02.837Z,7.91
2023-05-07T11:35:29.991Z,7.35
2023-05-07T11:38:02.758Z,7.24
2023-05-07T11:40:32.678Z,7.84
2023-05-07T11:42:59.372Z,8.06
2023-05-07T11:45:26.593Z,8.18
2023-05-07T11:47:53.432Z,8.61
2023-05-07T11:50:20.740Z,7.68
2023-05-07T11:52:56.505Z,8.20
2023-05-07T11:55:25.921Z,8.32
2023-05-07T11:57:58.687Z,8.04
2023-05-07T12:00:25.556Z,8.62
2023-05-07T12:02:52.743Z,8.49
2023-05-07T12:05:19.603Z,7.70
2023-05-07T12:07:46.752Z,7.80
2023-05-07T12:10:14.386Z,9.47
2023-05-07T12:12:46.556Z,11.80
2023-05-07T12:15:23.609Z,13.63
2023-05-07T12:17:51.405Z,14.66
2023-05-07T12:20:19.651Z,16.08
2023-05-07T12:22:47.752Z,16.95
2023-05-07T12:25:20.828Z,17.64
2023-05-07T12:27:53.420Z,18.22
2023-05-07T12:30:21.765Z,18.67
2023-05-07T12:32:53.508Z,19.12
2023-05-07T12:35:30.978Z,19.41
2023-05-07T12:38:00.781Z,19.93
2023-05-07T12:40:48.203Z,19.68
2023-05-07T12:43:22.560Z,20.10
2023-05-07T12:45:51.433Z,20.66
2023-05-07T12:48:18.663Z,20.75
2023-05-07T12:50:46.051Z,20.00
2023-05-07T12:53:14.149Z,20.23
2023-05-07T12:55:46.483Z,20.98
2023-05-07T12:58:21.608Z,20.96
2023-05-07T13:00:51.150Z,21.44
2023-05-07T13:03:39.030Z,21.56
2023-05-07T13:06:08.245Z,21.17
2023-05-07T13:08:36.034Z,20.75
2023-05-07T13:11:07.046Z,21.66
2023-05-07T13:13:37.828Z,21.42
2023-05-07T13:16:05.909Z,21.57
2023-05-07T13:18:34.591Z,22.05
2023-05-07T13:21:02.221Z,22.44
2023-05-07T13:23:29.731Z,23.43
2023-05-07T13:26:01.114Z,23.28
2023-05-07T13:28:31.193Z,23.50
2023-05-07T13:30:58.819Z,23.17
2023-05-07T13:33:25.720Z,23.31
2023-05-07T13:35:52.472Z,24.14
2023-05-07T13:38:20.080Z,23.98
2023-05-07T13:40:46.769Z,24.32
2023-05-07T13:43:13.447Z,26.04
2023-05-07T13:45:40.134Z,25.74
2023-05-07T13:48:06.888Z,26.92
2023-05-07T13:50:33.610Z,27.76
2023-05-07T13:53:00.251Z,28.72
2023-05-07T13:55:27.179Z,29.33
2023-05-07T13:57:59.021Z,30.15
2023-05-07T14:00:28.494Z,30.97
2023-05-07T14:02:56.797Z,31.57
2023-05-07T14:05:27.673Z,32.60
2023-05-07T14:07:55.215Z,33.08
2023-05-07T14:10:21.941Z,34.25
2023-05-07T14:12:48.756Z,35.59
2023-05-07T14:15:17.001Z,36.08
2023-05-07T14:17:44.602Z,36.74
2023-05-07T14:20:13.540Z,38.49
2023-05-07T14:22:40.680Z,40.19
2023-05-07T14:25:08.153Z,42.66
2023-05-07T14:27:34.941Z,45.34
2023-05-07T14:30:01.803Z,45.70
2023-05-07T14:32:28.625Z,48.97
2023-05-07T14:34:55.514Z,51.28
2023-05-07T14:37:22.279Z,54.41
2023-05-07T14:39:51.116Z,55.87
2023-05-07T14:42:18.553Z,57.04
2023-05-07T14:44:46.749Z,58.61
2023-05-07T14:47:14.158Z,62.34
2023-05-07T14:49:41.872Z,65.53
2023-05-07T14:52:10.988Z,66.67
2023-05-07T14:54:39.253Z,69.22
2023-05-07T14:57:07.238Z,71.74
2023-05-07T14:59:34.034Z,72.79
2023-05-07T15:02:01.914Z,73.52
2023-05-07T15:04:29.858Z,73.97
2023-05-07T15:06:57.072Z,74.75
2023-05-07T15:09:23.794Z,75.24
2023-05-07T15:11:50.541Z,76.60
2023-05-07T15:14:17.430Z,78.49
2023-05-07T15:16:44.550Z,78.88
2023-05-07T15:19:11.370Z,79.60
2023-05-07T15:21:38.056Z,80.46
2023-05-07T15:24:04.876Z,81.78
2023-05-07T15:26:31.524Z,82.13
2023-05-07T15:28:58.378Z,82.74
2023-05-07T15:31:26.455Z,83.20
2023-05-07T15:33:53.367Z,83.49
2023-05-07T15:36:21.454Z,84.33
2023-05-07T15:38:48.192Z,85.05
2023-05-07T15:41:15.188Z,85.88
2023-05-07T15:43:47.007Z,87.13
2023-05-07T15:46:17.912Z,87.70
2023-05-07T15:48:44.635Z,88.13
2023-05-07T15:51:11.678Z,88.68
2023-05-07T15:53:38.650Z,87.77
2023-05-07T15:56:05.458Z,87.83
2023-05-07T15:58:32.167Z,88.13
2023-05-07T16:01:01.035Z,88.71
2023-05-07T16:03:29.242Z,88.14
2023-05-07T16:06:02.656Z,87.36
2023-05-07T16:08:29.557Z,87.34
2023-05-07T16:10:56.317Z,88.29
2023-05-07T16:13:24.896Z,89.56
2023-05-07T16:16:01.061Z,89.45
2023-05-07T16:18:27.778Z,89.39
2023-05-07T16:20:54.657Z,90.96
2023-05-07T16:23:21.680Z,91.03
2023-05-07T16:25:49.866Z,91.21
2023-05-07T16:28:16.842Z,90.97
2023-05-07T16:30:43.765Z,90.83
2023-05-07T16:33:10.601Z,91.02
2023-05-07T16:35:47.770Z,92.44
2023-05-07T16:38:14.421Z,92.27
2023-05-07T16:40:41.858Z,92.14
2023-05-07T16:43:08.701Z,92.55
2023-05-07T16:45:35.548Z,92.55
2023-05-07T16:48:03.383Z,92.20
2023-05-07T16:50:30.397Z,91.81
2023-05-07T16:52:57.090Z,92.40
2023-05-07T16:55:23.693Z,92.54
2023-05-07T16:57:50.466Z,92.28
2023-05-07T17:00:18.187Z,92.15
2023-05-07T17:02:45.891Z,92.21
2023-05-07T17:05:12.935Z,92.05
2023-05-07T17:07:40.023Z,92.18
2023-05-07T17:10:07.216Z,92.34
2023-05-07T17:12:35.887Z,92.26
2023-05-07T17:15:03.202Z,91.84
2023-05-07T17:17:30.150Z,92.48
2023-05-07T17:19:57.137Z,92.29
2023-05-07T17:22:25.228Z,91.83
2023-05-07T17:24:52.343Z,92.13
2023-05-07T17:27:21.654Z,91.66
2023-05-07T17:29:48.404Z,91.81
2023-05-07T17:32:15.245Z,91.57
2023-05-07T17:34:42.052Z,91.39
2023-05-07T17:37:09.013Z,91.27
2023-05-07T17:39:35.681Z,91.16
2023-05-07T17:42:02.513Z,91.28
2023-05-07T17:44:29.421Z,91.82
2023-05-07T17:46:56.239Z,91.83
2023-05-07T17:49:22.941Z,91.85
2023-05-07T17:51:55.144Z,91.78
2023-05-07T17:54:24.370Z,91.56
2023-05-07T17:56:51.243Z,91.35
2023-05-07T17:59:18.205Z,91.79
2023-05-07T18:01:45.425Z,91.97
2023-05-07T18:04:12.199Z,91.97
2023-05-07T18:06:39.822Z,92.10
2023-05-07T18:09:06.649Z,91.13
2023-05-07T18:11:33.755Z,91.40
2023-05-07T18:14:01.274Z,91.71
2023-05-07T18:16:28.110Z,92.75
2023-05-07T18:18:55.763Z,92.87
2023-05-07T18:21:22.649Z,92.41
2023-05-07T18:23:49.651Z,92.94
2023-05-07T18:26:16.690Z,92.96
2023-05-07T18:28:43.817Z,92.22
2023-05-07T18:31:10.971Z,92.76
2023-05-07T18:33:37.605Z,91.88
2023-05-07T18:36:04.489Z,92.49
2023-05-07T18:38:32.665Z,92.71
2023-05-07T18:41:05.752Z,92.81
2023-05-07T18:43:33.797Z,92.40
2023-05-07T18:46:00.914Z,91.52
2023-05-07T18:48:27.737Z,91.92
2023-05-07T18:50:54.440Z,92.26
2023-05-07T18:53:21.370Z,92.13
2023-05-07T18:55:51.986Z,91.74
2023-05-07T18:58:20.095Z,91.51
2023-05-07T19:00:51.398Z,90.71
2023-05-07T19:03:18.343Z,90.28
2023-05-07T19:05:45.863Z,90.09
2023-05-07T19:08:13.026Z,89.47
2023-05-07T19:10:39.729Z,89.51
2023-05-07T19:13:06.679Z,89.16
2023-05-07T19:15:33.464Z,88.39
2023-05-07T19:18:00.504Z,88.73
2023-05-07T19:20:27.377Z,88.47
2023-05-07T19:22:53.992Z,88.57
2023-05-07T19:25:20.764Z,88.65
2023-05-07T19:27:48.122Z,88.18
2023-05-07T19:30:14.994Z,88.51
2023-05-07T19:32:41.704Z,87.80
2023-05-07T19:35:09.059Z,88.67
2023-05-07T19:37:35.887Z,87.60
2023-05-07T19:40:06.562Z,87.61
2023-05-07T19:42:33.319Z,87.65
2023-05-07T19:45:00.198Z,87.34
2023-05-07T19:47:26.899Z,87.22
2023-05-07T19:49:53.606Z,87.03
2023-05-07T19:52:20.304Z,86.85
2023-05-07T19:54:47.383Z,86.87
2023-05-07T19:57:15.353Z,86.44
2023-05-07T19:59:42.033Z,86.51
2023-05-07T20:02:08.902Z,86.36
2023-05-07T20:04:38.122Z,86.47
2023-05-07T20:07:05.829Z,85.84
2023-05-07T20:09:32.681Z,85.47
2023-05-07T20:12:00.809Z,85.61
2023-05-07T20:14:27.845Z,85.85
2023-05-07T20:16:54.591Z,85.59
2023-05-07T20:19:21.293Z,85.91
2023-05-07T20:21:48.054Z,85.47
2023-05-07T20:24:14.730Z,85.72
2023-05-07T20:26:41.647Z,85.55
2023-05-07T20:29:08.304Z,86.16
2023-05-07T20:31:37.744Z,85.59
2023-05-07T20:34:04.443Z,85.08
2023-05-07T20:36:31.361Z,85.42
2023-05-07T20:38:58.068Z,85.19
2023-05-07T20:41:27.839Z,84.82
2023-05-07T20:43:55.715Z,85.15
2023-05-07T20:46:23.067Z,85.46
2023-05-07T20:48:50.252Z,85.54
2023-05-07T20:51:17.186Z,85.46
2023-05-07T20:53:46.010Z,85.22
2023-05-07T20:56:14.344Z,85.45
2023-05-07T20:58:41.198Z,85.41
2023-05-07T21:01:08.066Z,85.27
2023-05-07T21:03:34.816Z,85.23
2023-05-07T21:06:01.912Z,85.11
2023-05-07T21:08:28.639Z,85.29
2023-05-07T21:10:55.693Z,84.96
2023-05-07T21:13:23.212Z,85.32
2023-05-07T21:15:50.645Z,85.05
2023-05-07T21:18:18.093Z,85.17
2023-05-07T21:20:44.789Z,85.08
2023-05-07T21:23:11.525Z,85.23
2023-05-07T21:25:38.908Z,84.75
2023-05-07T21:28:08.288Z,84.83
2023-05-07T21:30:35.955Z,84.77
2023-05-07T21:33:03.061Z,84.79
2023-05-07T21:35:29.903Z,85.14
2023-05-07T21:37:56.510Z,84.85
2023-05-07T21:40:23.186Z,84.74
2023-05-07T21:42:50.055Z,85.11
2023-05-07T21:45:16.819Z,85.03
2023-05-07T21:47:43.546Z,85.02
2023-05-07T21:50:11.049Z,85.00
2023-05-07T21:52:38.179Z,84.69
2023-05-07T21:55:05.257Z,84.98
2023-05-07T21:57:31.968Z,84.53
2023-05-07T21:59:58.588Z,84.37
2023-05-07T22:02:25.933Z,84.44
2023-05-07T22:04:52.898Z,84.31
2023-05-07T22:07:19.569Z,84.08
2023-05-07T22:09:46.194Z,84.06
2023-05-07T22:12:12.847Z,83.95
2023-05-07T22:14:39.556Z,83.99
2023-05-07T22:17:06.294Z,83.83
2023-05-07T22:19:32.930Z,83.71
2023-05-07T22:22:01.256Z,83.38
2023-05-07T22:24:29.399Z,83.58
2023-05-07T22:26:56.180Z,83.60
2023-05-07T22:29:23.645Z,83.57
2023-05-07T22:31:50.682Z,83.26
2023-05-07T22:34:17.546Z,83.42
2023-05-07T22:36:44.435Z,83.10
2023-05-07T22:39:11.679Z,83.25
2023-05-07T22:41:38.885Z,83.23
2023-05-07T22:44:06.530Z,82.86
2023-05-07T22:46:33.308Z,83.03
2023-05-07T22:49:00.151Z,82.63
2023-05-07T22:51:27.948Z,82.46
2023-05-07T22:53:54.546Z,82.33
2023-05-07T22:56:21.296Z,82.38
2023-05-07T22:58:49.474Z,81.99
2023-05-07T23:01:18.544Z,82.12
2023-05-07T23:03:45.458Z,81.71
2023-05-07T23:06:12.722Z,81.59
2023-05-07T23:08:42.130Z,81.84
2023-05-07T23:11:08.877Z,81.31
2023-05-07T23:13:35.561Z,81.49
2023-05-07T23:16:02.520Z,81.20
2023-05-07T23:18:32.471Z,81.85
2023-05-07T23:20:59.410Z,81.78
2023-05-07T23:23:29.789Z,81.80
2023-05-07T23:25:56.477Z,81.86
2023-05-07T23:28:23.107Z,82.00
2023-05-07T23:30:49.818Z,81.78
2023-05-07T23:33:16.795Z,81.57
2023-05-07T23:35:43.554Z,81.47
2023-05-07T23:38:10.120Z,81.79
2023-05-07T23:40:36.756Z,81.59
2023-05-07T23:43:03.383Z,81.54
2023-05-07T23:45:30.270Z,81.21
2023-05-07T23:47:57.360Z,81.12
2023-05-07T23:50:24.291Z,81.46
2023-05-07T23:52:50.927Z,81.23
2023-05-07T23:55:17.823Z,81.44
2023-05-07T23:57:45.093Z,81.17
